Raymondville, TX (78580)

3:13 PM CDT on September 30, 2014 (GMT -0500)
Valley International | Change Station
CLOSE
Current Station
Airport
Location: Harlingen,
Elevation: 36 ft
Nearby Weather Stations

Elev 36 ft 26.23 °N, 97.65 °W | Updated 21 minutes ago

Partly Cloudy
Partly Cloudy
86 °F
Feels Like 95 °F
N
0
Wind Variable Wind from North

Today
High -- | Low -- °F
--% Chance of Precip.
Yesterday
High -- | Low -- °F
Precip. -- in
7:23 AM 7:18 PM
Waxing Crescent, 39% visible
Pressure 29.77 in
Visibility 10.0 miles
Clouds Scattered Clouds 3100 ft
Mostly Cloudy 5500 ft
Overcast 8000 ft
Heat Index 95 °F
Dew Point 75 °F
Humidity 70%
Rainfall 0.21 in
Snow Depth Not available.
UV 3 out of 12
Pollen 8.10 out of 12
Ozone Good
PM2.5 Good
Flu Activity Not available.
METAR KHRL 301952Z 00000KT 10SM SCT031 BKN055 OVC080 30/24 A2977 RMK AO2 SLP080 T03000239

More Conditions Fewer Conditions

Pressure 29.77 in
Visibility 10.0 miles
Clouds Scattered Clouds 3100 ft
Mostly Cloudy 5500 ft
Overcast 8000 ft
Heat Index 95 °F
Dew Point 75 °F
Humidity 70%
Rainfall 0.21 in
Snow Depth Not available.
UV 3 out of 12
Pollen 8.10 out of 12
Ozone Good
PM2.5 Good
Flu Activity Not available.
METAR KHRL 301952Z 00000KT 10SM SCT031 BKN055 OVC080 30/24 A2977 RMK AO2 SLP080 T03000239

More Conditions Fewer Conditions

Nowcast | as of 1:42 PM CDT on September 30, 2014

Through 3 PM...showers will develop and slowly move across the coastal counties this afternoon with the heaviest activity being in central and northern Kenedy County. Periods of moderate to heavy downpours can be expected with amounts generally ranging from a tenth to a quarter of an inch.

×

10-Day Weather Forecast

Almanac

Astronomy

Sep. 30, 2014 Rise Set
Actual Time 7:23 AM CDT 7:18 PM CDT
Civil Twilight 7:00 AM CDT 7:41 PM CDT
Nautical Twilight 6:33 AM CDT 8:08 PM CDT
Astronomical Twilight 6:06 AM CDT 8:35 PM CDT
Moon 1:07 PM CDT No Moon Set
Length of Visible Light 12h 41m
Length of Day
11h 55m
Tomorrow will be 1m 33s shorter.
Waxing Crescent, 39% of the Moon is Illuminated
Today
Waxing Crescent
Oct 1
First Quarter
Oct 8
Full
Oct 15
Last Quarter
Oct 23
New

Today's Extremes

State Highs State Lows

Community

WunderPhotos

Upload Photos

1,757,738 photos uploaded!

Nearby

Air Quality

  Air Quality AQ Index Pollutant
Yesterday Good
OZONE
Yesterday Good
PM2.5
Current Good
OZONE
Current Good
PM2.5
Tuesday Good
PM10
Tuesday Good
OZONE
Wednesday Good
PM10
Wednesday Good
OZONE
Thursday Good
PM10
Thursday Good
OZONE
Friday Good
PM10
Friday Good
OZONE

Snow Depth

Station Depth Elevation
No new snow has been reported.

Earthquake Activity

City Distance Mag. Time & Date
No recent earthquake activity has been reported nearby.
Minimum magnitude displayed is 2.5.

Coastal Water Temperatures

Place Temperature
Port Isabel, TX 82.0 °F
Baffin Bay Point of Rocks, TX 82.9 °F
South Bird Island, TX 82.0 °F
Malaquite Beach (Corpus Christi), TX 81.0 °F
Packery Channel, TX 80.1 °F

Nearby Weather Stations